Dernières infos :  

21/07/2017  Mise à jour des tableaux d'analyses décadaires : rubrique climatologie
10/07/2017 Retour en chiffres et images sur le violent orage de dimanche 9 : 
CLIQUEZ ICI
02/07/2017 Mise en ligne de la synthèse climatologique de Juin 2017 : CLIQUEZ ICI
01/07/2017  Mise à jour des tableaux d'analyses décadaires, mensuelles et annuelles : rubrique climatologie   

Si l'entête du tableau ne s'affiche pas correctement, => actualisez la page (F5 avec Internet Explorer, Chrome...).
Utilisez l'ascenseur sur la droite des lignes du tableau pour faire défiler verticalement les jours du mois.

TABLEAU DES DONNEES COMPLETES NOAA de JUIN 2017

DATE TEMPERATURE
sous abri
TEMPARATURE 
au sol
VENT  et  Indice de Refroidissement Eolien  PRECIPITATIONS (en mm/m2)
et Intensité
PRESSION ATMOSPHERIQUE (en hPa) HUMIDITE de l'AIR RADIATIONS SOLAIRES (en W/m2)
Mini Moy. Maxi Mini Moy. Maxi Moyen Rafale I.R.E.
Minii
Précip. jour Cumul mois Intensité Maxi Mini Moy. Maxi Mini Moy. Maxi Pic maxi du jour Total jour
01/06/17 14.2° 20.4° 26.9° 13.3° 21.6° 32.2° 2.9km/h dir SSO 33.8km/h dir ESE 14.2° 0.4 0.4 1016.7 1018.7 1019.8 48% 77.9% 97% 905 72 494
02/06/17 14.2° 21.6° 28.8° 12.2° 22.7° 34.4° 4.2km/h dir SSE 22.5km/h dir S 14.2° 0 0.4 1013.5 1016 1018.2 45% 72.7% 93% 916 86 953
03/06/17 16.3° 20.1° 27° 16.1° 20.9° 34.4° 4.5km/h dir SSE 24.1km/h dir O 16.3° 20.6 21 160mm/h 1011.2 1013.1 1014.6 59% 83.4% 95% 983 49 588
04/06/17 13.1° 16.5° 20.4° 12.2° 17.8° 26.1° 6.4km/h dir NNE 24.1km/h dir ONO 12.1° 3.8 24.8 7.4mm/h 1014.6 1016.7 1019.4 52% 78.9% 95% 1129 68 900
05/06/17 13.2° 17.3° 22.7° 11.1° 18.5° 28.9° 4.8km/h dir ONO 22.5km/h dir ONO 13.2° 0 24.8 1008.6 1013.2 1015.4 43% 70.9% 89% 944 81 208
06/06/17 12° 15.3° 19.9° 10.6° 15.4° 24.4° 6.9km/h dir SSE 43.5km/h dir SO 11.6° 11.2 36 72.4mm/h 1005.9 1010.3 1016.8 45% 77% 94% 1213 49 247
07/06/17 8.2° 14.7° 19.8° 6.7° 15.5° 27.2° 4km/h dir SO 24.1km/h dir OSO 7.7° 0 36 1016.9 1020.5 1022.1 48% 67.3% 91% 1134 76 887
08/06/17 7.6° 17.9° 27.8° 6.7° 18.8° 32.2° 4.5km/h dir SE 29km/h dir S 7.6° 0 36 1012.4 1017.3 1020.8 36% 66% 94% 900 93 204
09/06/17 17.1° 21.4° 26.3° 15° 21.9° 30.6° 6km/h dir SSE 35.4km/h dir SSO 17.1° 0 36 1011.7 1014.8 1017.4 50% 62.2% 78% 976 60 110
10/06/17 15.8° 21.9° 27.1° 14.4° 22.8° 32.8° 5.1km/h dir NO 20.9km/h dir O 15.8° 0 36 1017.2 1018 1019.4 42% 66.8% 90% 879 91 842
11/06/17 13.6° 23.1° 32.6° 12.2° 23.6° 36.1° 2.3km/h dir SO 14.5km/h dir SO 13.7° 0 36 1013.7 1016.1 1018.2 40% 68.2% 93% 1021 87 766
12/06/17 18.6° 23.4° 28.4° 17.2° 24.7° 35° 6.3km/h dir ONO 25.7km/h dir NO 18.6° 0 36 1015 1016.1 1017.3 58% 75.3% 92% 963 85 670
13/06/17 14.9° 22.3° 28.8° 13.3° 23.8° 33.3° 5.5km/h dir ONO 20.9km/h dir NO 15° 0 36 1012.3 1015 1016.5 56% 71.6% 88% 886 86 214
14/06/17 17.3° 22.5° 29.4° 16.7° 23.8° 35° 4.2km/h dir NNE 22.5km/h dir O 17.3° 0.4 36.4 1011.5 1013.6 1015.2 57% 77.4% 90% 1000 58 591
15/06/17 16.3° 23.7° 31.9° 15° 25° 36.7° 2.4km/h dir E 17.7km/h dir OSO 16.3° 0.2 36.6 1014.1 1015.6 1017.6 49% 78.5% 96% 909 80 612
16/06/17 17.7° 22.3° 26.9° 15.6° 23.4° 32.8° 8.2km/h dir NNE 27.4km/h dir ONO 17.7° 0 36.6 1017.6 1020.6 1022.9 47% 69.5% 94% 937 90 704
17/06/17 13.2° 20.2° 25.8° 12.2° 21.3° 30° 13.4km/h dir NNE 40.2km/h dir N 12.9° 0 36.6 1019 1021.7 1023.4 48% 65.9% 87% 879 92 347
18/06/17 14.7° 22.4° 30° 12.2° 23.4° 33.3° 4.8km/h dir NNE 25.7km/h dir ONO 14.7° 0 36.6 1016.3 1017.8 1019.5 47% 66.4% 86% 881 92 242
19/06/17 18.1° 26° 33° 16.1° 26.4° 35.6° 8.7km/h dir SSE 40.2km/h dir S 18.1° 0 36.6 1014.7 1016.7 1018.2 36% 58.4% 91% 867 90 259
20/06/17 22.1° 27.8° 34.2° 20.6° 28.3° 37.2° 7.6km/h dir SSE 30.6km/h dir SSE 22.1° 0 36.6 1013 1015.3 1016.7 35% 48% 65% 856 88 689
21/06/17 20.6° 28.1° 35° 17.8° 28.6° 38.9° 4.2km/h dir SE 19.3km/h dir NE 20.6° 0 36.6 1011.7 1013.4 1014.4 38% 58.7% 80% 856 89 082
22/06/17 20° 28.3° 36° 18.3° 28.9° 39.4° 5km/h dir S 22.5km/h dir S 20° 0 36.6 1012.3 1013.8 1014.9 37% 62.6% 85% 939 84 526
23/06/17 23.3° 27.3° 32.7° 21.1° 28.4° 37.8° 6.3km/h dir ONO 29km/h dir ONO 23.3° 0 36.6 1014.5 1016.3 1018.5 46% 65.8% 85% 847 80 576
24/06/17 21.4° 24.6° 29.5° 20.6° 26.1° 33.3° 5.5km/h dir ONO 17.7km/h dir ONO 21.4° 0 36.6 1014.4 1017.2 1019.1 46% 64.1% 79% 1000 73 719
25/06/17 19.7° 23.2° 28.1° 17.2° 24.6° 33.3° 4.7km/h dir NNE 20.9km/h dir O 19.7° 0 36.6 1014.1 1015.8 1017.5 41% 61.2% 86% 1123 80 573
26/06/17 14.5° 20.8° 26.7° 12.8° 21° 32.2° 2.7km/h dir NE 22.5km/h dir S 14.5° 0.2 36.8 1008.5 1011.1 1014.7 56% 76.3% 92% 879 39 166
27/06/17 17.3° 24.2° 31.6° 15° 25.5° 36.7° 6.1km/h dir SSE 43.5km/h dir OSO 17.3° 2.8 39.6 12.6mm/h 999.6 1005.7 1009.1 39% 63.9% 88% 1074 78 337
28/06/17 14.8° 18.9° 25.7° 13.9° 20.3° 33.3° 6.1km/h dir SSE 40.2km/h dir SO 14.7° 3.6 43.2 23.6mm/h 997.9 1001 1005 53% 81.5% 94% 1123 55 596
29/06/17 14.7° 16.6° 21.9° 13.9° 17.1° 27.8° 8.2km/h dir SSE 35.4km/h dir S 14.3° 4 47.2 120mm/h 999.5 1002.3 1007.1 61% 82.1% 90% 1183 42 933
30/06/17 13.2° 16.5° 20.4° 12.2° 17° 25° 9.3km/h dir SSE 43.5km/h dir S 13.1° 3.2 50.4 31mm/h 1007.1 1008.5 1012.6 52% 73% 93% 997 44 173
0 0 0 0 0 0 0 0 0 0 0 0 0 0 0 0 0 0 0 0 0

RETOUR ACCUEIL


Date de création : 01/07/2017 : 11:58
Catégorie : ANNEE 2017 - MOIS PASSES - JUIN 2017
Page lue 43 fois


Réactions à cet article

Personne n'a encore laissé de commentaire.
Soyez donc le premier !